Time;durP1;ratioP1;P1;durP2;ratioP2;P2;SDS_P1;SDS_P2;PMS_P1;PMS_P2;Temp;Humidity;BMP_temperature;BMP_pressure;BME280_temperature;BME280_humidity;BME280_pressure;Samples;Min_cycle;Max_cycle;Signal;HPM_P1;HPM_P2
2021/12/02 00:00:18;;;;;;;6.80;1.55;;;;;;;;;;4994780;28;20038;-71
2021/12/02 00:02:44;;;;;;;6.22;1.73;;;;;;;;;;5010825;28;20050;-72
2021/12/02 00:05:10;;;;;;;8.65;2.65;;;;;;;;;;5010900;28;20069;-71
2021/12/02 00:07:36;;;;;;;7.25;1.38;;;;;;;;;;5010547;28;20525;-71
2021/12/02 00:10:03;;;;;;;9.65;1.33;;;;;;;;;;5010921;28;20038;-73
2021/12/02 00:12:29;;;;;;;10.35;1.25;;;;;;;;;;5010856;28;20452;-71
2021/12/02 00:14:58;;;;;;;9.05;1.60;;;;;;;;;;5011027;28;20080;-71
2021/12/02 00:17:28;;;;;;;18.85;2.80;;;;;;;;;;5010366;28;20049;-71
2021/12/02 00:22:55;;;;;;;6.45;1.83;;;;;;;;;;5010621;28;20046;-71
2021/12/02 00:25:22;;;;;;;25.20;2.40;;;4.40;99.90;;;;;;5010524;28;20034;-72
2021/12/02 00:27:48;;;;;;;6.25;1.10;;;;;;;;;;4994269;28;20080;-71
2021/12/02 00:30:14;;;;;;;7.78;1.55;;;4.30;99.90;;;;;;5011010;28;20062;-71
2021/12/02 00:32:42;;;;;;;8.02;1.35;;;4.40;99.90;;;;;;4994102;28;20033;-71
2021/12/02 00:35:09;;;;;;;7.15;1.92;;;;;;;;;;5011997;28;20049;-71
2021/12/02 00:37:37;;;;;;;6.50;1.23;;;;;;;;;;5010327;28;20053;-71
2021/12/02 00:40:03;;;;;;;5.53;1.02;;;;;;;;;;5010103;28;20037;-69
2021/12/02 00:42:30;;;;;;;8.15;2.15;;;;;;;;;;5010324;28;20113;-71
2021/12/02 00:44:57;;;;;;;6.22;1.80;;;4.20;99.90;;;;;;4994113;28;20073;-72
2021/12/02 00:47:23;;;;;;;7.13;2.05;;;4.30;99.90;;;;;;5010116;28;20077;-71
2021/12/02 00:49:49;;;;;;;5.57;0.93;;;4.40;99.90;;;;;;5010402;28;20125;-71
2021/12/02 00:52:15;;;;;;;5.07;0.70;;;;;;;;;;4993960;28;20100;-71
2021/12/02 00:54:42;;;;;;;4.18;1.30;;;4.50;99.90;;;;;;5010598;28;20112;-71
2021/12/02 00:57:11;;;;;;;7.22;2.22;;;4.50;99.90;;;;;;5010030;28;20140;-71
2021/12/02 00:59:36;;;;;;;6.13;1.55;;;;;;;;;;5010238;28;20038;-71
2021/12/02 01:02:03;;;;;;;5.88;2.83;;;;;;;;;;5010216;28;20522;-72
2021/12/02 01:04:29;;;;;;;5.53;1.23;;;;;;;;;;5010283;28;20048;-72
2021/12/02 01:06:55;;;;;;;6.80;1.85;;;;;;;;;;4993726;28;20042;-72
2021/12/02 01:09:21;;;;;;;4.25;1.48;;;4.40;99.90;;;;;;4993792;28;20476;-71
2021/12/02 01:11:47;;;;;;;4.35;0.77;;;4.30;99.90;;;;;;4993787;28;20125;-72
2021/12/02 01:14:14;;;;;;;4.68;1.00;;;4.10;99.90;;;;;;5010638;28;20060;-71
2021/12/02 01:16:40;;;;;;;3.33;0.85;;;;;;;;;;5010021;28;20038;-71
2021/12/02 01:19:06;;;;;;;8.15;1.90;;;;;;;;;;5010221;28;20040;-71
2021/12/02 01:21:32;;;;;;;9.13;1.70;;;;;;;;;;5009908;28;20037;-71
2021/12/02 01:24:00;;;;;;;6.45;0.77;;;4.00;99.90;;;;;;5011884;28;20045;-71
2021/12/02 01:26:28;;;;;;;5.57;0.90;;;;;;;;;;4997274;28;20056;-71
2021/12/02 01:28:55;;;;;;;5.38;0.90;;;;;;;;;;5013699;28;20152;-72
2021/12/02 01:31:21;;;;;;;6.47;0.77;;;;;;;;;;5013727;28;20129;-71
2021/12/02 01:33:47;;;;;;;10.90;1.42;;;;;;;;;;5013804;28;20042;-72
2021/12/02 01:36:14;;;;;;;6.88;0.90;;;4.00;99.90;;;;;;5013273;28;20050;-71
2021/12/02 01:38:40;;;;;;;8.30;0.85;;;;;;;;;;5013732;28;20053;-71
2021/12/02 01:41:06;;;;;;;4.60;0.60;;;;;;;;;;5013596;28;20046;-71
2021/12/02 01:43:52;;;;;;;6.38;0.80;;;;;;;;;;4997139;28;20080;-71
2021/12/02 01:46:23;;;;;;;0.95;0.50;;;;;;;;;;5013096;28;20138;-71
2021/12/02 01:49:05;;;;;;;4.50;0.80;;;;;;;;;;5013479;28;20497;-71
2021/12/02 01:51:39;;;;;;;3.10;0.55;;;3.90;99.90;;;;;;5013403;28;20046;-71
2021/12/02 01:54:09;;;;;;;;;;;3.90;99.90;;;;;;5013873;28;20041;-71
2021/12/02 01:56:49;;;;;;;1.83;0.63;;;;;;;;;;5012992;28;19921;-71
2021/12/02 01:59:17;;;;;;;6.47;0.60;;;3.90;99.90;;;;;;5013465;28;20545;-71
2021/12/02 02:01:44;;;;;;;5.57;1.38;;;;;;;;;;5013265;28;20041;-71
2021/12/02 02:04:10;;;;;;;5.85;1.10;;;;;;;;;;5013160;28;20038;-71
2021/12/02 02:06:49;;;;;;;13.68;2.25;;;4.00;99.90;;;;;;5012867;28;20096;-72
2021/12/02 02:09:15;;;;;;;3.45;1.17;;;;;;;;;;5013195;28;20503;-71
2021/12/02 02:11:42;;;;;;;2.88;0.70;;;;;;;;;;5013158;28;20483;-71
2021/12/02 02:14:09;;;;;;;5.72;0.80;;;;;;;;;;5013009;28;20092;-71
2021/12/02 02:16:37;;;;;;;5.75;0.68;;;3.80;99.90;;;;;;5013122;28;20053;-71
2021/12/02 02:19:04;;;;;;;3.25;0.88;;;3.80;99.90;;;;;;5013004;28;20037;-71
2021/12/02 02:21:32;;;;;;;4.40;1.10;;;3.90;99.90;;;;;;5012752;28;20034;-71
2021/12/02 02:24:00;;;;;;;3.40;0.80;;;;;;;;;;5012916;28;20124;-71
2021/12/02 02:26:28;;;;;;;2.45;0.50;;;;;;;;;;5012704;28;20046;-71
2021/12/02 02:28:55;;;;;;;2.53;0.70;;;;;;;;;;5012854;28;20138;-69
2021/12/02 02:31:21;;;;;;;2.40;0.70;;;;;;;;;;5014056;28;20062;-71
2021/12/02 02:33:49;;;;;;;3.03;0.75;;;;;;;;;;5014138;28;20527;-72
2021/12/02 02:36:17;;;;;;;9.55;1.52;;;3.70;99.90;;;;;;5011548;28;20233;-71
2021/12/02 02:38:53;;;;;;;7.78;1.13;;;;;;;;;;5012652;28;20042;-71
2021/12/02 02:41:21;;;;;;;1.38;0.55;;;;;;;;;;5012902;28;20042;-71
2021/12/02 02:43:51;;;;;;;5.72;1.10;;;3.70;99.90;;;;;;4996214;28;20038;-72
2021/12/02 02:46:26;;;;;;;1.50;0.50;;;;;;;;;;4995726;28;20042;-71
2021/12/02 02:48:52;;;;;;;5.93;0.80;;;;;;;;;;5013092;28;20053;-72
2021/12/02 02:51:19;;;;;;;3.80;0.70;;;;;;;;;;5012216;28;20034;-71
2021/12/02 02:53:48;;;;;;;2.63;0.70;;;;;;;;;;5012288;28;20068;-71
2021/12/02 02:56:17;;;;;;;5.60;0.70;;;;;;;;;;5012147;28;20143;-71
2021/12/02 03:04:17;;;;;;;5.57;0.75;;;3.40;99.90;;;;;;5012327;28;20105;-71
2021/12/02 03:12:16;;;;;;;4.13;1.20;;;3.40;99.90;;;;;;5011748;28;20061;-71
2021/12/02 03:17:08;;;;;;;0.30;0.30;;;;;;;;;;5011623;28;20046;-71
2021/12/02 03:19:37;;;;;;;2.55;0.60;;;;;;;;;;4995495;28;20128;-71
2021/12/02 03:22:03;;;;;;;4.18;1.02;;;;;;;;;;5011627;28;20711;-71
2021/12/02 03:24:29;;;;;;;11.27;2.75;;;;;;;;;;4995477;28;20042;-71
2021/12/02 03:26:55;;;;;;;8.73;1.92;;;;;;;;;;5011644;28;20065;-71
2021/12/02 03:29:21;;;;;;;4.13;0.65;;;;;;;;;;4995356;28;20041;-71
2021/12/02 03:31:47;;;;;;;1.45;0.50;;;;;;;;;;5011986;28;20546;-71
2021/12/02 03:34:13;;;;;;;4.97;0.60;;;;;;;;;;5011735;28;20045;-71
2021/12/02 03:36:40;;;;;;;0.80;0.45;;;;;;;;;;5011155;28;20042;-71
2021/12/02 03:39:07;;;;;;;1.15;0.43;;;;;;;;;;4995474;28;20045;-71
2021/12/02 03:41:33;;;;;;;3.45;0.65;;;3.30;99.90;;;;;;5011349;28;20042;-71
2021/12/02 03:44:00;;;;;;;1.45;0.30;;;;;;;;;;5011836;28;20136;-71
2021/12/02 03:46:26;;;;;;;2.63;0.43;;;2.50;99.90;;;;;;5010883;28;20436;-71
2021/12/02 03:48:54;;;;;;;0.75;0.45;;;3.20;99.90;;;;;;5011302;28;20407;-71
2021/12/02 03:51:20;;;;;;;3.70;0.43;;;3.00;99.90;;;;;;5011364;28;20057;-72
2021/12/02 03:53:46;;;;;;;0.95;0.40;;;;;;;;;;5011373;28;20038;-71
2021/12/02 03:56:13;;;;;;;3.15;0.52;;;;;;;;;;5010886;28;20196;-72
2021/12/02 03:58:40;;;;;;;2.55;0.30;;;;;;;;;;5011256;28;20046;-71
2021/12/02 04:01:07;;;;;;;2.65;0.30;;;;;;;;;;5011161;28;20491;-72
2021/12/02 04:03:33;;;;;;;1.40;1.00;;;3.30;99.90;;;;;;5010747;28;20443;-71
2021/12/02 04:05:59;;;;;;;3.58;0.50;;;3.10;99.90;;;;;;5010774;28;20038;-71
2021/12/02 04:08:31;;;;;;;5.85;0.60;;;;;;;;;;5010958;28;20038;-71
2021/12/02 04:11:47;;;;;;;2.25;0.50;;;3.10;99.90;;;;;;5011004;28;20050;-71
2021/12/02 04:14:00;;;;;;;2.85;0.57;;;;;;;;;;5003579;28;20515;-71
2021/12/02 04:16:27;;;;;;;2.95;1.40;;;3.30;99.90;;;;;;5010555;28;20055;-71
2021/12/02 04:18:53;;;;;;;4.95;1.55;;;;;;;;;;5010756;28;20249;-73
2021/12/02 04:21:19;;;;;;;2.38;0.50;;;;;;;;;;5010742;28;20123;-72
2021/12/02 04:23:45;;;;;;;4.18;0.90;;;;;;;;;;4994336;28;20070;-73
2021/12/02 04:26:11;;;;;;;1.33;0.20;;;;;;;;;;4994262;28;20041;-71
2021/12/02 04:28:37;;;;;;;2.95;0.35;;;3.50;99.90;;;;;;5010608;28;20077;-71
2021/12/02 04:31:03;;;;;;;0.40;0.20;;;3.40;99.90;;;;;;5010730;28;20050;-71
2021/12/02 04:33:30;;;;;;;0.20;0.20;;;;;;;;;;4994128;28;20459;-71
2021/12/02 04:35:56;;;;;;;1.23;0.30;;;;;;;;;;5010203;28;20042;-70
2021/12/02 04:38:22;;;;;;;0.30;0.20;;;;;;;;;;5010356;28;20046;-70
2021/12/02 04:40:48;;;;;;;0.70;0.20;;;;;;;;;;5010566;28;20574;-70
2021/12/02 04:43:14;;;;;;;1.55;0.43;;;;;;;;;;5010199;28;20045;-70
2021/12/02 04:45:40;;;;;;;0.20;0.10;;;;;;;;;;5010246;28;20042;-70
2021/12/02 04:48:06;;;;;;;1.02;0.20;;;;;;;;;;5010451;28;20467;-70
2021/12/02 04:50:32;;;;;;;0.17;0.17;;;;;;;;;;5010575;28;20408;-70
2021/12/02 04:52:58;;;;;;;2.20;0.30;;;3.30;99.90;;;;;;4993717;28;20038;-70
2021/12/02 04:55:24;;;;;;;9.05;0.93;;;;;;;;;;5010123;28;20037;-70
2021/12/02 04:57:50;;;;;;;2.28;0.25;;;;;;;;;;4994240;28;20428;-70
2021/12/02 05:00:16;;;;;;;1.55;0.80;;;;;;;;;;4998018;28;20149;-70
2021/12/02 05:02:42;;;;;;;9.98;1.05;;;;;;;;;;4998142;28;20052;-70
2021/12/02 05:05:11;;;;;;;6.82;0.60;;;3.50;99.90;;;;;;5014312;28;20049;-70
2021/12/02 05:07:37;;;;;;;3.40;0.38;;;;;;;;;;4997952;28;20034;-70
2021/12/02 05:10:05;;;;;;;0.52;0.40;;;3.40;99.90;;;;;;5014329;28;20556;-71
2021/12/02 05:12:31;;;;;;;6.32;0.95;;;;;;;;;;5037198;23;20050;-68
2021/12/02 05:14:56;;;;;;;9.82;0.52;;;3.40;99.90;;;;;;5014835;28;20049;-68
2021/12/02 05:17:22;;;;;;;5.95;1.30;;;;;;;;;;5013613;28;20510;-69
2021/12/02 05:19:48;;;;;;;3.92;0.30;;;;;;;;;;5014551;28;20061;-69
2021/12/02 05:22:14;;;;;;;2.40;0.77;;;;;;;;;;5015518;28;20045;-69
2021/12/02 05:24:41;;;;;;;3.75;0.40;;;;;;;;;;5014291;28;20041;-69
2021/12/02 05:27:07;;;;;;;1.75;0.70;;;;;;;;;;5013450;28;20049;-69
2021/12/02 05:29:33;;;;;;;5.45;0.63;;;;;;;;;;5014395;28;20116;-69
2021/12/02 05:31:59;;;;;;;1.05;0.40;;;;;;;;;;5013984;28;20041;-69
2021/12/02 05:34:25;;;;;;;4.57;0.35;;;3.60;99.90;;;;;;5014369;28;20038;-69
2021/12/02 05:36:51;;;;;;;3.45;0.43;;;;;;;;;;5013952;28;20497;-69
2021/12/02 05:39:17;;;;;;;1.65;0.65;;;;;;;;;;5014076;28;20038;-69
2021/12/02 05:41:43;;;;;;;0.50;0.35;;;;;;;;;;5015153;28;20041;-68
2021/12/02 05:44:09;;;;;;;1.60;0.40;;;;;;;;;;5013795;28;20090;-68
2021/12/02 05:46:36;;;;;;;1.45;0.35;;;;;;;;;;5013812;28;20044;-68
2021/12/02 05:49:01;;;;;;;0.68;0.28;;;3.40;99.90;;;;;;5013794;28;20038;-69
2021/12/02 05:51:27;;;;;;;1.52;0.22;;;3.60;99.90;;;;;;5013972;28;20060;-71
2021/12/02 05:53:52;;;;;;;1.38;0.30;;;3.60;99.90;;;;;;5014025;28;20033;-69
2021/12/02 05:56:18;;;;;;;1.95;0.47;;;;;;;;;;5013350;28;20473;-68
2021/12/02 05:58:44;;;;;;;1.10;0.30;;;;;;;;;;5013580;28;20438;-68
2021/12/02 06:01:10;;;;;;;1.83;0.70;;;;;;;;;;4997204;28;20044;-69
2021/12/02 06:03:36;;;;;;;3.60;0.40;;;3.40;99.90;;;;;;5013454;28;20486;-69
2021/12/02 06:06:03;;;;;;;0.90;0.30;;;;;;;;;;5013136;28;20042;-69
2021/12/02 06:08:29;;;;;;;2.85;0.43;;;;;;;;;;5013366;28;20077;-69
2021/12/02 06:10:55;;;;;;;1.08;0.60;;;;;;;;;;5012963;28;20049;-69
2021/12/02 06:13:21;;;;;;;3.15;0.57;;;;;;;;;;5012945;28;20053;-68
2021/12/02 06:15:47;;;;;;;3.10;0.40;;;;;;;;;;5012964;28;20038;-68
2021/12/02 06:18:12;;;;;;;2.38;0.55;;;3.30;99.90;;;;;;5013092;28;20038;-68
2021/12/02 06:20:38;;;;;;;5.07;0.43;;;3.40;99.90;;;;;;5013140;28;20133;-68
2021/12/02 06:23:04;;;;;;;1.30;0.50;;;;;;;;;;4996916;28;20045;-69
2021/12/02 06:27:56;;;;;;;1.58;0.50;;;;;;;;;;5013086;28;20212;-69
2021/12/02 06:30:24;;;;;;;3.78;0.60;;;3.50;99.90;;;;;;5013257;28;20052;-68
2021/12/02 06:32:50;;;;;;;4.07;0.50;;;;;;;;;;4996869;28;20176;-68
2021/12/02 06:35:16;;;;;;;2.17;0.50;;;;;;;;;;5014711;28;20054;-69
2021/12/02 06:37:43;;;;;;;3.28;0.60;;;3.50;99.90;;;;;;5015602;28;20049;-68
2021/12/02 06:40:09;;;;;;;1.35;0.30;;;3.40;99.90;;;;;;4997763;28;20041;-69
2021/12/02 06:42:35;;;;;;;1.45;0.52;;;3.40;99.90;;;;;;5012618;28;20053;-69
2021/12/02 06:45:01;;;;;;;5.53;0.68;;;;;;;;;;4998219;28;20038;-69
2021/12/02 06:47:34;;;;;;;4.68;0.75;;;;;;;;;;5014627;28;20099;-69
2021/12/02 06:50:02;;;;;;;2.70;0.57;;;3.40;99.90;;;;;;4997180;28;20050;-69
2021/12/02 06:52:33;;;;;;;3.47;0.68;;;3.30;99.90;;;;;;4996232;28;20048;-69
2021/12/02 06:54:58;;;;;;;3.45;0.63;;;3.50;99.90;;;;;;5009171;28;20438;-69
2021/12/02 06:57:25;;;;;;;6.25;1.20;;;;;;;;;;4989095;28;20555;-68
2021/12/02 06:59:51;;;;;;;1.20;0.77;;;;;;;;;;5005654;28;20037;-67
2021/12/02 07:02:18;;;;;;;2.08;0.50;;;;;;;;;;5009644;28;20129;-67
2021/12/02 07:04:44;;;;;;;2.60;0.60;;;;;;;;;;5008373;28;20909;-67
2021/12/02 07:07:10;;;;;;;0.32;0.30;;;;;;;;;;5000259;28;20133;-68
2021/12/02 07:09:36;;;;;;;2.63;0.40;;;;;;;;;;5010776;28;20121;-68
2021/12/02 07:12:02;;;;;;;2.15;0.60;;;;;;;;;;5005554;28;20042;-68
2021/12/02 07:14:28;;;;;;;1.08;0.35;;;;;;;;;;4984503;28;20049;-67
2021/12/02 07:16:56;;;;;;;2.70;0.60;;;;;;;;;;5006158;28;20031;-68
2021/12/02 07:19:22;;;;;;;3.72;1.15;;;;;;;;;;5009557;28;20446;-68
2021/12/02 07:21:48;;;;;;;1.88;0.50;;;;;;;;;;5006999;28;20040;-68
2021/12/02 07:24:15;;;;;;;3.92;0.50;;;3.60;99.90;;;;;;5001637;28;20061;-68
2021/12/02 07:26:42;;;;;;;3.47;0.75;;;;;;;;;;5008710;28;20045;-68
2021/12/02 07:29:13;;;;;;;1.42;1.33;;;;;;;;;;5008438;28;20038;-70
2021/12/02 07:31:40;;;;;;;2.17;0.90;;;;;;;;;;4991072;28;20038;-66
2021/12/02 07:34:06;;;;;;;0.77;0.50;;;;;;;;;;5006640;28;20085;-67
2021/12/02 07:36:32;;;;;;;0.63;0.47;;;;;;;;;;5006989;28;20034;-69
2021/12/02 07:39:01;;;;;;;1.45;0.52;;;;;;;;;;5008849;28;20129;-68
2021/12/02 07:41:27;;;;;;;1.25;0.68;;;;;;;;;;5005771;28;20573;-68
2021/12/02 07:43:53;;;;;;;2.20;0.75;;;;;;;;;;5007897;28;20030;-67
2021/12/02 07:46:19;;;;;;;2.83;0.60;;;;;;;;;;5006886;28;20492;-67
2021/12/02 07:48:45;;;;;;;2.58;0.65;;;;;;;;;;5007667;28;20695;-67
2021/12/02 07:51:12;;;;;;;2.63;0.90;;;;;;;;;;5007522;28;20045;-68
2021/12/02 07:53:43;;;;;;;4.78;0.70;;;3.20;99.90;;;;;;4991421;28;20046;-68
2021/12/02 07:56:11;;;;;;;1.77;0.80;;;;;;;;;;4974686;28;20053;-68
2021/12/02 07:58:39;;;;;;;2.42;0.75;;;;;;;;;;4993077;28;20090;-68
2021/12/02 08:01:05;;;;;;;2.17;0.88;;;;;;;;;;4986557;28;20146;-68
2021/12/02 08:03:31;;;;;;;4.22;0.95;;;;;;;;;;5001874;28;20076;-70
2021/12/02 08:05:57;;;;;;;3.28;0.70;;;2.90;99.90;;;;;;5010911;28;20041;-68
2021/12/02 08:08:22;;;;;;;0.85;0.73;;;3.20;99.90;;;;;;4983172;28;20038;-67
2021/12/02 08:10:48;;;;;;;5.95;0.90;;;;;;;;;;5008566;28;20495;-68
2021/12/02 08:13:14;;;;;;;1.70;0.60;;;;;;;;;;5007815;28;20057;-68
2021/12/02 08:15:41;;;;;;;2.15;0.70;;;3.00;99.90;;;;;;5003338;28;20041;-67
2021/12/02 08:18:08;;;;;;;7.63;0.75;;;3.20;99.90;;;;;;5002162;28;20130;-68
2021/12/02 08:20:34;;;;;;;2.53;0.50;;;;;;;;;;5003743;28;20479;-68
2021/12/02 08:23:00;;;;;;;1.60;0.55;;;;;;;;;;5011156;28;20127;-68
2021/12/02 08:25:27;;;;;;;1.05;0.55;;;;;;;;;;5010847;28;20128;-68
2021/12/02 08:27:59;;;;;;;3.97;0.98;;;3.00;99.90;;;;;;5002738;28;20512;-69
2021/12/02 08:30:26;;;;;;;2.47;0.88;;;;;;;;;;4998185;28;20664;-69
2021/12/02 08:32:55;;;;;;;2.13;0.65;;;3.30;99.90;;;;;;5007934;28;20096;-70
2021/12/02 08:35:22;;;;;;;1.88;0.63;;;3.40;99.90;;;;;;5010465;28;20046;-69
2021/12/02 08:37:50;;;;;;;3.10;0.80;;;3.40;99.90;;;;;;5010866;28;20112;-70
2021/12/02 08:40:18;;;;;;;2.67;0.77;;;;;;;;;;5010738;28;20038;-70
2021/12/02 08:42:45;;;;;;;4.00;1.00;;;3.40;99.90;;;;;;5010833;28;20045;-70
2021/12/02 08:45:11;;;;;;;2.15;1.05;;;;;;;;;;5010578;28;20116;-70
2021/12/02 08:47:43;;;;;;;2.90;0.88;;;;;;;;;;5003726;28;20077;-70
2021/12/02 08:50:10;;;;;;;5.50;1.42;;;3.60;99.90;;;;;;4990213;28;20075;-70
2021/12/02 08:52:36;;;;;;;1.55;0.50;;;;;;;;;;4989717;28;20045;-72
2021/12/02 08:55:03;;;;;;;1.25;0.60;;;;;;;;;;4994155;28;20125;-71
2021/12/02 08:57:29;;;;;;;1.73;0.73;;;;;;;;;;4984966;28;20047;-71
2021/12/02 08:59:55;;;;;;;3.42;1.00;;;;;;;;;;4993487;28;20556;-70
2021/12/02 09:02:21;;;;;;;2.67;1.00;;;3.60;99.90;;;;;;5003248;28;20566;-70
2021/12/02 09:04:47;;;;;;;2.63;0.88;;;3.60;99.90;;;;;;4998792;28;20163;-70
2021/12/02 09:07:13;;;;;;;2.53;0.80;;;3.60;99.90;;;;;;5010198;28;20132;-69
2021/12/02 09:09:38;;;;;;;4.05;1.25;;;3.60;99.90;;;;;;5011928;28;20045;-70
2021/12/02 09:12:04;;;;;;;3.15;1.15;;;3.70;99.90;;;;;;5009755;28;20045;-70
2021/12/02 09:14:31;;;;;;;2.00;1.08;;;;;;;;;;4986684;28;20419;-69
2021/12/02 09:16:57;;;;;;;7.78;1.98;;;3.50;99.90;;;;;;4990357;28;20096;-70
2021/12/02 09:19:22;;;;;;;6.75;1.15;;;3.70;99.90;;;;;;4974910;28;20451;-69
2021/12/02 09:21:48;;;;;;;4.97;1.67;;;3.70;99.90;;;;;;4974436;28;20093;-69
2021/12/02 09:24:18;;;;;;;4.68;1.40;;;;;;;;;;4990448;28;20205;-70
2021/12/02 09:26:46;;;;;;;4.10;1.00;;;;;;;;;;5008248;28;20042;-69
2021/12/02 09:29:12;;;;;;;8.48;1.00;;;3.60;99.90;;;;;;5010362;28;20046;-69
2021/12/02 09:31:38;;;;;;;5.50;1.13;;;3.70;99.90;;;;;;5007500;28;20081;-71
2021/12/02 09:34:04;;;;;;;4.30;1.15;;;3.80;99.90;;;;;;4994106;28;20038;-70
2021/12/02 09:36:30;;;;;;;8.07;1.60;;;;;;;;;;4987901;28;20072;-69
2021/12/02 09:38:55;;;;;;;4.90;1.00;;;;;;;;;;4998785;28;20038;-68
2021/12/02 09:41:21;;;;;;;2.67;1.05;;;3.80;99.90;;;;;;4985744;28;20034;-69
2021/12/02 09:43:47;;;;;;;4.78;1.27;;;4.00;99.90;;;;;;5007151;28;20128;-69
2021/12/02 09:46:12;;;;;;;3.65;1.20;;;4.00;99.90;;;;;;5010880;28;20096;-69
2021/12/02 09:48:38;;;;;;;5.38;1.38;;;;;;;;;;4997409;28;20128;-70
2021/12/02 09:51:20;;;;;;;9.20;3.08;;;;;;;;;;4985525;28;20105;-70
2021/12/02 09:56:17;;;;;;;6.28;2.70;;;4.50;99.90;;;;;;5007943;28;20042;-70
2021/12/02 09:58:43;;;;;;;10.00;3.53;;;;;;;;;;4978448;28;20038;-69
2021/12/02 10:01:12;;;;;;;7.35;2.80;;;;;;;;;;4997793;28;20046;-70
2021/12/02 10:03:40;;;;;;;7.70;2.22;;;4.50;99.90;;;;;;5010907;28;20038;-71
2021/12/02 10:06:10;;;;;;;4.47;1.63;;;4.70;99.90;;;;;;5013180;28;20124;-70
2021/12/02 10:08:41;;;;;;;2.85;1.08;;;;;;;;;;5013311;28;20034;-70
2021/12/02 10:11:12;;;;;;;6.10;1.65;;;;;;;;;;5013236;28;20049;-70
2021/12/02 10:13:49;;;;;;;4.32;0.93;;;4.90;99.90;;;;;;5013636;28;20053;-71
2021/12/02 10:16:29;;;;;;;1.77;1.00;;;5.00;99.90;;;;;;4996928;28;20403;-70
2021/12/02 10:21:30;;;;;;;2.63;0.63;;;;;;;;;;5001460;28;20046;-71
2021/12/02 10:24:00;;;;;;;2.83;0.70;;;;;;;;;;4992618;28;20042;-69
2021/12/02 10:26:26;;;;;;;0.85;0.40;;;;;;;;;;5004317;28;20045;-69
2021/12/02 10:28:52;;;;;;;2.28;0.70;;;2.70;99.90;;;;;;5004834;28;20079;-70
2021/12/02 10:31:23;;;;;;;5.30;0.70;;;;;;;;;;4988774;28;20435;-69
2021/12/02 10:33:51;;;;;;;2.30;0.32;;;;;;;;;;4995662;28;20038;-69
2021/12/02 10:36:33;;;;;;;1.75;0.47;;;2.60;99.90;;;;;;5007135;28;20496;-71
2021/12/02 10:39:21;;;;;;;2.83;0.50;;;;;;;;;;5001401;28;20038;-70
2021/12/02 10:41:56;;;;;;;2.28;0.40;;;;;;;;;;4996161;28;20050;-70
2021/12/02 10:44:24;;;;;;;1.15;0.40;;;;;;;;;;5012643;28;20041;-69
2021/12/02 10:47:05;;;;;;;4.72;0.60;;;2.70;99.90;;;;;;5014542;28;20491;-69
2021/12/02 10:49:43;;;;;;;3.33;0.80;;;2.70;99.90;;;;;;4997560;28;20073;-70
2021/12/02 10:52:35;;;;;;;2.72;0.70;;;2.80;99.90;;;;;;5012352;28;20049;-69
2021/12/02 10:55:08;;;;;;;3.58;0.50;;;2.70;99.90;;;;;;5010571;28;20533;-68
2021/12/02 10:57:36;;;;;;;3.50;0.77;;;2.70;99.90;;;;;;5013161;28;20121;-70
2021/12/02 11:00:05;;;;;;;1.63;0.70;;;2.70;99.90;;;;;;5004066;28;20400;-70
2021/12/02 11:02:32;;;;;;;1.52;0.60;;;;;;;;;;5007957;28;20408;-70
2021/12/02 11:05:23;;;;;;;1.92;0.63;;;;;;;;;;5002449;28;20031;-70
2021/12/02 11:07:58;;;;;;;0.50;0.50;;;;;;;;;;4995648;28;20042;-70
2021/12/02 11:10:27;;;;;;;0.82;0.60;;;;;;;;;;4997799;28;20546;-70
2021/12/02 11:12:56;;;;;;;3.10;1.60;;;3.00;99.90;;;;;;5013153;23;20461;-69
2021/12/02 11:15:24;;;;;;;2.28;1.48;;;3.20;99.90;;;;;;5031012;28;20564;-70
2021/12/02 11:17:57;;;;;;;1.67;1.00;;;3.70;99.90;;;;;;5032470;28;20037;-69
2021/12/02 11:20:34;;;;;;;3.47;0.95;;;;;;;;;;5027318;28;20457;-69
2021/12/02 11:23:06;;;;;;;2.30;0.82;;;;;;;;;;5011536;28;20041;-68
2021/12/02 11:25:33;;;;;;;1.98;0.50;;;;;;;;;;5016421;28;20033;-68
2021/12/02 11:28:04;;;;;;;1.73;0.50;;;;;;;;;;5011106;28;20042;-68
2021/12/02 11:30:30;;;;;;;2.05;0.60;;;;;;;;;;5025865;28;20048;-68
2021/12/02 11:32:57;;;;;;;1.52;0.70;;;;;;;;;;5010789;28;20398;-68
2021/12/02 11:35:40;;;;;;;1.30;0.70;;;;;;;;;;5026829;28;20684;-68
2021/12/02 11:38:09;;;;;;;1.83;0.70;;;;;;;;;;5027248;28;20053;-69
2021/12/02 11:40:40;;;;;;;2.97;0.75;;;;;;;;;;5025969;28;20051;-68
2021/12/02 11:43:11;;;;;;;2.70;0.60;;;4.10;99.90;;;;;;5011083;28;20048;-69
2021/12/02 11:45:43;;;;;;;4.15;0.93;;;;;;;;;;5025824;28;20037;-69
2021/12/02 11:48:09;;;;;;;3.47;0.73;;;;;;;;;;5028162;28;20037;-69
2021/12/02 11:50:35;;;;;;;0.95;0.55;;;;;;;;;;5030826;28;20038;-68
2021/12/02 11:53:01;;;;;;;3.63;0.65;;;4.40;99.90;;;;;;5016611;28;20037;-68
2021/12/02 11:55:32;;;;;;;4.78;0.80;;;;;;;;;;5030774;28;20037;-68
2021/12/02 11:57:58;;;;;;;1.88;0.90;;;;;;;;;;5030546;28;20038;-68
2021/12/02 12:00:26;;;;;;;4.60;1.38;;;4.50;99.90;;;;;;5031752;28;20095;-68
2021/12/02 12:03:03;;;;;;;2.15;0.85;;;;;;;;;;5030256;28;20044;-65
2021/12/02 12:05:31;;;;;;;2.05;0.60;;;;;;;;;;5013604;28;20057;-65
2021/12/02 12:07:58;;;;;;;0.90;0.60;;;4.10;99.90;;;;;;5013630;28;20495;-69
2021/12/02 12:10:29;;;;;;;1.33;0.73;;;3.90;99.90;;;;;;5014143;28;20046;-69
2021/12/02 12:13:21;;;;;;;0.63;0.40;;;4.00;99.90;;;;;;5030347;28;20041;-68
2021/12/02 12:15:49;;;;;;;1.80;0.93;;;3.80;99.90;;;;;;5013386;28;20509;-69
2021/12/02 12:18:20;;;;;;;0.63;0.38;;;;;;;;;;5029706;28;20409;-68
2021/12/02 12:20:50;;;;;;;1.42;0.60;;;;;;;;;;5030850;28;20041;-70
2021/12/02 12:23:46;;;;;;;0.55;0.40;;;4.10;99.90;;;;;;5014104;28;20045;-70
2021/12/02 12:26:30;;;;;;;1.67;0.60;;;;;;;;;;5009110;28;20041;-70
2021/12/02 12:29:13;;;;;;;2.10;0.90;;;;;;;;;;5030325;28;20103;-69
2021/12/02 12:31:51;;;;;;;2.42;0.75;;;4.10;99.90;;;;;;5014021;28;20046;-70
2021/12/02 12:34:30;;;;;;;1.83;0.65;;;;;;;;;;5029393;28;20550;-69
2021/12/02 12:36:57;;;;;;;1.15;0.63;;;;;;;;;;5029600;28;20045;-69
2021/12/02 12:39:26;;;;;;;1.08;0.70;;;4.20;99.90;;;;;;5021889;28;20064;-71
2021/12/02 12:42:16;;;;;;;0.80;0.60;;;4.40;99.90;;;;;;5011150;28;20076;-69
2021/12/02 12:44:49;;;;;;;0.38;0.32;;;;;;;;;;5010206;28;20522;-71
2021/12/02 12:47:15;;;;;;;1.92;0.40;;;4.50;99.90;;;;;;5010212;28;20056;-69
2021/12/02 12:49:42;;;;;;;1.20;0.35;;;;;;;;;;5010362;28;20080;-69
2021/12/02 12:52:14;;;;;;;5.95;1.00;;;;;;;;;;4993613;28;20045;-69
2021/12/02 12:54:40;;;;;;;1.90;0.50;;;4.30;99.90;;;;;;5010138;28;20125;-70
2021/12/02 12:57:08;;;;;;;2.80;0.50;;;4.40;99.90;;;;;;5024157;28;20561;-70
2021/12/02 12:59:50;;;;;;;3.00;0.52;;;;;;;;;;5014162;28;20037;-69
2021/12/02 13:02:16;;;;;;;2.70;0.40;;;;;;;;;;5013711;28;20046;-69
2021/12/02 13:04:53;;;;;;;2.08;0.60;;;4.30;99.90;;;;;;5031383;28;20040;-68
2021/12/02 13:07:20;;;;;;;1.65;0.57;;;;;;;;;;5013647;28;20045;-68
2021/12/02 13:10:09;;;;;;;0.70;0.60;;;;;;;;;;5029802;28;20055;-69
2021/12/02 13:12:46;;;;;;;1.10;0.98;;;4.40;99.90;;;;;;5029873;28;20096;-69
2021/12/02 13:15:15;;;;;;;1.23;0.70;;;;;;;;;;5029943;28;20045;-69
2021/12/02 13:17:43;;;;;;;0.98;0.55;;;;;;;;;;5013178;28;20495;-69
2021/12/02 13:20:45;;;;;;;1.10;0.60;;;4.60;99.90;;;;;;5031619;28;20111;-69
2021/12/02 13:23:17;;;;;;;3.25;0.60;;;4.50;99.90;;;;;;5003910;28;20414;-69
2021/12/02 13:25:45;;;;;;;8.20;0.70;;;;;;;;;;5032744;28;20491;-69
2021/12/02 13:28:15;;;;;;;1.38;0.70;;;;;;;;;;5016694;28;20045;-70
2021/12/02 13:30:46;;;;;;;2.70;1.50;;;;;;;;;;5033479;28;20625;-69
2021/12/02 13:33:12;;;;;;;2.13;1.10;;;;;;;;;;5016813;28;20562;-69
2021/12/02 13:35:38;;;;;;;4.22;0.60;;;;;;;;;;5016764;28;20137;-69
2021/12/02 13:38:05;;;;;;;0.47;0.30;;;4.40;99.90;;;;;;5032529;28;20534;-69
2021/12/02 13:40:38;;;;;;;2.17;1.70;;;4.50;99.90;;;;;;4997072;28;20488;-69
2021/12/02 13:43:04;;;;;;;;;;;4.40;99.90;;;;;;5013694;28;20041;-69
2021/12/02 13:45:31;;;;;;;0.98;0.60;;;;;;;;;;5013245;28;19917;-68
2021/12/02 13:48:18;;;;;;;0.57;0.40;;;;;;;;;;5013789;28;20076;-69
2021/12/02 13:50:48;;;;;;;0.93;0.35;;;;;;;;;;5017579;28;20041;-69
2021/12/02 13:53:14;;;;;;;2.78;1.35;;;;;;;;;;5033444;28;20129;-68
2021/12/02 13:55:42;;;;;;;1.27;0.50;;;;;;;;;;5032814;28;20046;-69
2021/12/02 14:00:58;;;;;;;0.82;0.50;;;;;;;;;;5032945;28;20045;-68
2021/12/02 14:03:25;;;;;;;1.10;0.32;;;;;;;;;;5032844;28;20046;-69
2021/12/02 14:05:56;;;;;;;0.52;0.43;;;4.30;99.90;;;;;;5032885;28;20064;-69
2021/12/02 14:08:27;;;;;;;1.48;0.40;;;;;;;;;;5033160;28;20041;-69
2021/12/02 14:10:54;;;;;;;2.50;0.50;;;;;;;;;;5032760;28;20072;-69
2021/12/02 14:13:21;;;;;;;0.85;0.40;;;3.80;99.90;;;;;;5031879;28;20045;-68
2021/12/02 14:15:52;;;;;;;1.08;0.40;;;;;;;;;;5029938;28;20033;-69
2021/12/02 14:18:22;;;;;;;1.45;0.47;;;;;;;;;;5030876;28;20049;-68
2021/12/02 14:21:05;;;;;;;3.75;0.60;;;3.90;99.90;;;;;;5032655;28;20029;-69
2021/12/02 14:23:37;;;;;;;1.47;0.53;;;3.90;99.90;;;;;;5015634;28;20049;-69
2021/12/02 14:26:10;;;;;;;2.10;0.50;;;;;;;;;;5031589;28;20048;-70
2021/12/02 14:28:43;;;;;;;2.20;0.70;;;3.70;99.90;;;;;;5032792;28;20045;-69
2021/12/02 14:31:21;;;;;;;2.45;0.40;;;3.70;99.90;;;;;;5032278;28;20073;-69
2021/12/02 14:33:48;;;;;;;0.90;0.60;;;;;;;;;;5016201;28;20045;-69
2021/12/02 14:36:17;;;;;;;1.10;0.60;;;3.80;99.90;;;;;;5032023;28;20468;-69